Weather at RAAF Williams, Point Cook Base

Public forecast

Using degrees Celsius for public forecast. Weather courtesy of forecast.io.

Closest aviation weather report (METAR) to RAAF Williams, Point Cook Base

Closest report is Melbourne Essendon Airport, 14.1 nm (26.2 km) NNE. Retrieved 2020/11/27 19:00 UTC (12 minutes ago):

YMEN 271900Z AUTO 24009KT 9999 // SCT120 17/14 Q1007

Closest aviation forecast (TAF) to RAAF Williams, Point Cook Base

Forecast is more than 6 hours old.

Closest forecast is Avalon Airport, 14.9 nm (27.6 km) WSW. Retrieved 2020/11/27 12:00 UTC (7 hours ago):

TAF YMAV 271119Z 2712/2812 19008KT CAVOK BECMG 2715/2716 18005KT 9999 -SHRA BKN010 BECMG 2721/2722 01010KT CAVOK FM280200 17014KT 9999 FEW018